Terminal Aerodrome Forecast
Issued by NWS Green Bay, WI

Home | Current Version | Previous Version | Text Only | Print | Product List | Glossary On
Versions: 1 2 3 4 5 6 7 8 9 10 11 12 13 14 15 16 17 18 19 20 21 22 23 24 25 26 27 28 29 30 31 32 33 34 35 36 37 38 39 40 41 42 43 44 45 46 47 48 49 50
000
FTUS43 KGRB 151730
TAFGRB
TAF
KGRB 151730Z 1518/1618 28010G17KT P6SM SCT025 SCT050
     FM152200 27004KT P6SM SCT025 BKN090
     FM160600 VRB03KT P6SM OVC040
     FM161000 05008KT 4SM -SN OVC025
      TEMPO 1611/1615 2SM -SN OVC015
     FM161700 07009KT 6SM -SN OVC020=

USA.gov is the U.S. government's official web portal to all federal, state and local government web resources and services.